Time;durP1;ratioP1;P1;durP2;ratioP2;P2;SDS_P1;SDS_P2;PMS_P1;PMS_P2;Temp;Humidity;BMP_temperature;BMP_pressure;BME280_temperature;BME280_humidity;BME280_pressure;Samples;Min_cycle;Max_cycle;Signal;HPM_P1;HPM_P2
2021/12/21 00:01:22;;;;;;;29.97;11.93;;;-1.70;99.90;;;;;;5009518;28;20176;-33
2021/12/21 00:03:47;;;;;;;27.40;11.37;;;-1.70;99.90;;;;;;5009329;28;20286;-33
2021/12/21 00:06:13;;;;;;;28.13;12.47;;;-1.70;99.90;;;;;;5008959;28;20594;-33
2021/12/21 00:08:39;;;;;;;21.63;11.30;;;-1.70;99.90;;;;;;5009650;28;20192;-33
2021/12/21 00:11:05;;;;;;;29.70;11.60;;;-1.80;99.90;;;;;;4993187;28;20204;-33
2021/12/21 00:18:52;;;;;;;21.60;12.53;;;-1.90;99.90;;;;;;5012365;28;20619;-33
2021/12/21 00:23:50;;;;;;;26.93;12.33;;;-1.90;99.90;;;;;;5013594;28;20175;-33
2021/12/21 00:26:19;;;;;;;17.17;10.00;;;-1.90;99.90;;;;;;5012207;28;20214;-33
2021/12/21 00:31:19;;;;;;;14.73;9.50;;;-2.00;99.90;;;;;;5012345;28;20202;-33
2021/12/21 00:33:47;;;;;;;15.90;9.07;;;-2.00;99.90;;;;;;5012194;28;20251;-33
2021/12/21 00:36:15;;;;;;;16.77;9.80;;;-2.10;99.90;;;;;;5011968;28;20195;-33
2021/12/21 00:38:41;;;;;;;14.47;9.53;;;-2.20;99.90;;;;;;5013280;28;20182;-33
2021/12/21 00:41:07;;;;;;;20.73;10.20;;;-2.20;99.90;;;;;;5011963;28;20175;-33
2021/12/21 00:43:33;;;;;;;25.87;10.80;;;-2.20;99.90;;;;;;5044970;28;20303;-33
2021/12/21 00:45:59;;;;;;;40.87;11.63;;;-2.30;99.90;;;;;;5011998;28;20195;-33
2021/12/21 00:48:30;;;;;;;18.67;10.30;;;-2.40;99.90;;;;;;5045116;28;20238;-32
2021/12/21 00:50:58;;;;;;;15.83;9.23;;;-2.40;99.90;;;;;;5012163;28;20233;-33
2021/12/21 00:53:24;;;;;;;18.80;11.37;;;-2.40;99.90;;;;;;5012180;28;20675;-33
2021/12/21 00:55:50;;;;;;;13.83;9.27;;;-2.40;99.90;;;;;;5011808;28;20202;-33
2021/12/21 00:58:16;;;;;;;13.30;9.17;;;-2.40;99.90;;;;;;5012044;28;20199;-32
2021/12/21 01:00:43;;;;;;;21.80;10.50;;;-2.50;99.90;;;;;;5012360;28;20213;-33
2021/12/21 01:03:12;;;;;;;19.87;10.57;;;-2.50;99.90;;;;;;5012069;28;20671;-32
2021/12/21 01:05:55;;;;;;;19.30;9.67;;;-2.40;99.90;;;;;;5011702;28;20267;-33
2021/12/21 01:08:25;;;;;;;17.77;9.07;;;-2.40;99.90;;;;;;5011959;28;20171;-33
2021/12/21 01:13:44;;;;;;;12.53;8.73;;;-2.50;99.90;;;;;;5011014;28;20179;-33
2021/12/21 01:16:31;;;;;;;13.07;8.53;;;-2.50;99.90;;;;;;5009557;28;20207;-33
2021/12/21 01:19:43;;;;;;;9.90;7.10;;;-2.60;99.90;;;;;;4997260;28;20175;-33
2021/12/21 01:37:13;;;;;;;24.97;8.90;;;-2.90;99.90;;;;;;5011958;28;20227;-33
2021/12/21 01:42:20;;;;;;;17.90;8.17;;;-2.80;99.90;;;;;;5011044;28;20215;-33
2021/12/21 01:49:56;;;;;;;13.43;8.07;;;-2.80;99.90;;;;;;4994262;28;20207;-32
2021/12/21 01:52:25;;;;;;;12.17;7.63;;;-2.90;99.90;;;;;;5026980;28;20685;-32
2021/12/21 01:54:55;;;;;;;33.90;9.47;;;-2.90;99.90;;;;;;4996044;28;20176;-33
2021/12/21 01:57:21;;;;;;;17.00;9.17;;;-2.90;99.90;;;;;;5027994;28;20211;-33
2021/12/21 01:59:48;;;;;;;12.17;8.03;;;-2.90;99.90;;;;;;5028161;28;20183;-33
2021/12/21 02:02:17;;;;;;;17.33;7.73;;;-2.80;99.90;;;;;;5028169;28;20189;-33
2021/12/21 02:04:57;;;;;;;11.40;7.47;;;-2.80;99.90;;;;;;4994696;28;20275;-33
2021/12/21 02:07:23;;;;;;;16.43;8.30;;;-2.80;99.90;;;;;;5027768;28;20228;-33
2021/12/21 02:09:48;;;;;;;27.20;8.73;;;-2.80;99.90;;;;;;5027772;28;20172;-33
2021/12/21 02:12:18;;;;;;;12.87;7.63;;;-2.90;99.90;;;;;;5027994;28;20208;-33
2021/12/21 02:14:56;;;;;;;15.80;9.10;;;-2.90;99.90;;;;;;5031022;28;20274;-32
2021/12/21 02:20:19;;;;;;;21.10;8.73;;;-2.90;99.90;;;;;;5014790;28;20163;-33
2021/12/21 02:22:54;;;;;;;15.70;8.47;;;-2.80;99.90;;;;;;5014825;28;20167;-33
2021/12/21 02:30:46;;;;;;;18.40;9.10;;;-2.90;99.90;;;;;;5014418;28;20207;-32
2021/12/21 02:33:13;;;;;;;18.97;9.17;;;-2.90;99.90;;;;;;5015671;28;20262;-32
2021/12/21 02:35:40;;;;;;;15.30;8.50;;;-2.90;99.90;;;;;;5015115;28;20198;-32
2021/12/21 02:38:06;;;;;;;13.30;8.80;;;-2.90;99.90;;;;;;5014147;28;20179;-33
2021/12/21 02:40:33;;;;;;;18.43;9.00;;;-2.90;99.90;;;;;;5015287;28;20229;-32
2021/12/21 02:42:59;;;;;;;18.87;9.33;;;-2.90;99.90;;;;;;5013971;28;20234;-33
2021/12/21 02:45:25;;;;;;;18.07;8.83;;;-2.90;99.90;;;;;;5013939;28;20191;-32
2021/12/21 02:47:50;;;;;;;16.90;9.60;;;-2.90;99.90;;;;;;5012978;28;20272;-33
2021/12/21 02:50:16;;;;;;;15.33;9.13;;;-2.90;99.90;;;;;;4996576;28;20187;-33
2021/12/21 02:52:42;;;;;;;30.30;9.80;;;-2.90;99.90;;;;;;5029141;28;20187;-33
2021/12/21 02:55:08;;;;;;;30.17;9.27;;;-2.90;99.90;;;;;;5012358;28;20559;-32
2021/12/21 02:57:34;;;;;;;12.07;7.03;;;-3.10;99.90;;;;;;5012376;28;20175;-33
2021/12/21 03:00:01;;;;;;;10.33;7.40;;;-3.20;99.90;;;;;;5012263;28;20186;-32
2021/12/21 03:02:29;;;;;;;12.77;8.10;;;-3.20;99.90;;;;;;5013400;28;20237;-32
2021/12/21 03:04:55;;;;;;;15.10;8.57;;;-3.10;99.90;;;;;;5013078;28;20176;-32
2021/12/21 03:07:50;;;;;;;12.43;8.40;;;-3.10;99.90;;;;;;5045238;28;20218;-32
2021/12/21 03:10:11;;;;;;;16.93;8.77;;;-3.10;99.90;;;;;;5011787;28;20278;-32
2021/12/21 03:15:27;;;;;;;11.40;7.13;;;-3.10;99.90;;;;;;5011303;28;20194;-32
2021/12/21 03:17:54;;;;;;;15.90;7.97;;;-3.10;99.90;;;;;;5028833;28;20183;-33
2021/12/21 03:20:20;;;;;;;14.17;7.37;;;-3.10;99.90;;;;;;5011571;28;20176;-32
2021/12/21 03:22:46;;;;;;;12.23;7.13;;;-3.20;99.90;;;;;;5011851;28;20194;-32
2021/12/21 03:25:13;;;;;;;19.63;8.10;;;-3.30;99.90;;;;;;5044794;28;20180;-33
2021/12/21 03:27:39;;;;;;;31.40;9.33;;;-3.30;99.90;;;;;;5011787;28;20183;-32
2021/12/21 03:30:08;;;;;;;26.73;8.53;;;-3.40;99.90;;;;;;5027773;28;20275;-32
2021/12/21 03:32:34;;;;;;;11.17;7.63;;;-3.40;99.90;;;;;;5044693;28;20195;-32
2021/12/21 03:35:00;;;;;;;13.13;7.73;;;-3.50;99.90;;;;;;5011473;28;20233;-32
2021/12/21 03:37:26;;;;;;;14.43;8.83;;;-3.40;99.90;;;;;;5011435;28;20250;-32
2021/12/21 03:39:54;;;;;;;16.07;8.40;;;-3.30;99.90;;;;;;5010453;28;20182;-32
2021/12/21 03:42:20;;;;;;;14.20;8.03;;;-3.30;99.90;;;;;;5027867;28;20199;-32
2021/12/21 03:44:47;;;;;;;15.07;8.07;;;-3.40;99.90;;;;;;5027418;28;20234;-32
2021/12/21 03:47:16;;;;;;;14.57;9.00;;;-3.40;99.90;;;;;;5011187;28;20257;-32
2021/12/21 03:52:20;;;;;;;25.70;8.13;;;-3.30;99.90;;;;;;5011702;28;20203;-32
2021/12/21 03:54:50;;;;;;;38.80;9.20;;;-3.30;99.90;;;;;;5044081;28;20170;-32
2021/12/21 03:57:16;;;;;;;35.23;8.90;;;-3.50;99.90;;;;;;5044047;28;20205;-32
2021/12/21 03:59:44;;;;;;;10.97;7.03;;;-3.60;99.90;;;;;;5044234;28;20176;-32
2021/12/21 04:02:11;;;;;;;31.37;8.83;;;-3.60;99.90;;;;;;5044352;28;20194;-32
2021/12/21 04:04:38;;;;;;;16.57;7.67;;;-3.70;99.90;;;;;;5027578;28;20189;-33
2021/12/21 04:07:05;;;;;;;11.83;6.93;;;-3.70;99.90;;;;;;5027135;28;20211;-32
2021/12/21 04:09:31;;;;;;;10.53;7.43;;;-3.70;99.90;;;;;;5010617;28;20176;-32
2021/12/21 04:11:57;;;;;;;12.37;7.60;;;-3.70;99.90;;;;;;5027251;28;20629;-32
2021/12/21 04:14:23;;;;;;;13.90;8.50;;;-3.70;99.90;;;;;;5027315;28;20191;-32
2021/12/21 04:16:51;;;;;;;15.33;8.00;;;-3.60;99.90;;;;;;5010807;28;20249;-32
2021/12/21 04:19:18;;;;;;;11.30;7.73;;;-3.60;99.90;;;;;;5010574;28;20176;-32
2021/12/21 04:21:44;;;;;;;11.73;7.20;;;-3.60;99.90;;;;;;5011028;28;20210;-32
2021/12/21 04:24:10;;;;;;;15.83;8.33;;;-3.60;99.90;;;;;;5027305;28;20214;-32
2021/12/21 04:26:36;;;;;;;17.63;9.03;;;-3.60;99.90;;;;;;5010501;28;20210;-32
2021/12/21 04:29:02;;;;;;;24.10;9.07;;;-3.60;99.90;;;;;;5010771;28;20629;-33
2021/12/21 04:31:28;;;;;;;19.77;8.73;;;-3.60;99.90;;;;;;5010625;28;20218;-32
2021/12/21 04:33:54;;;;;;;14.93;8.50;;;-3.60;99.90;;;;;;5043861;28;20187;-32
2021/12/21 04:36:20;;;;;;;25.00;8.40;;;-3.60;99.90;;;;;;5011703;28;20293;-32
2021/12/21 04:38:49;;;;;;;35.40;13.20;;;-3.50;99.90;;;;;;5026878;28;20182;-32
2021/12/21 04:41:22;;;;;;;19.03;8.90;;;-3.70;99.90;;;;;;5010662;28;20210;-32
2021/12/21 04:43:49;;;;;;;41.43;9.33;;;-3.70;99.90;;;;;;5010463;28;20191;-32
2021/12/21 04:46:14;;;;;;;15.47;8.20;;;-3.70;99.90;;;;;;5026870;28;20206;-33
2021/12/21 04:48:40;;;;;;;14.77;7.30;;;-3.90;99.90;;;;;;5010659;28;20183;-32
2021/12/21 04:51:06;;;;;;;14.87;8.23;;;-3.90;99.90;;;;;;5011529;28;20199;-32
2021/12/21 04:53:32;;;;;;;15.63;8.73;;;-4.00;99.90;;;;;;5047976;28;20182;-33
2021/12/21 04:55:58;;;;;;;14.50;8.60;;;-3.90;99.90;;;;;;5014123;28;20202;-33
2021/12/21 04:58:24;;;;;;;19.40;8.63;;;-3.90;99.90;;;;;;5047637;28;20175;-33
2021/12/21 05:00:51;;;;;;;16.97;8.80;;;-3.90;99.90;;;;;;5014067;28;20187;-32
2021/12/21 05:03:18;;;;;;;14.57;8.23;;;-3.90;99.90;;;;;;5047490;28;20179;-32
2021/12/21 05:05:44;;;;;;;11.20;7.70;;;-3.80;99.90;;;;;;5047044;28;20582;-32
2021/12/21 05:08:18;;;;;;;13.03;8.10;;;-3.80;99.90;;;;;;5014107;28;20182;-32
2021/12/21 05:10:49;;;;;;;22.77;7.97;;;-3.80;99.90;;;;;;5014475;28;20199;-32
2021/12/21 05:13:16;;;;;;;11.23;7.33;;;-3.80;99.90;;;;;;5014239;28;20190;-32
2021/12/21 05:15:43;;;;;;;24.93;9.03;;;-3.80;99.90;;;;;;5013788;28;20207;-32
2021/12/21 05:18:10;;;;;;;13.10;8.07;;;-3.80;99.90;;;;;;5013213;28;20183;-32
2021/12/21 05:23:02;;;;;;;11.63;7.90;;;-3.80;99.90;;;;;;5030583;28;20199;-39
2021/12/21 05:25:28;;;;;;;15.67;8.37;;;-3.80;99.90;;;;;;5033271;28;20186;-38
2021/12/21 05:27:54;;;;;;;14.17;9.50;;;-3.80;99.90;;;;;;5033660;28;20210;-38
2021/12/21 05:30:22;;;;;;;16.97;9.23;;;-3.80;99.90;;;;;;5033815;28;20202;-38
2021/12/21 05:32:49;;;;;;;19.03;8.67;;;-3.80;99.90;;;;;;5033104;28;20206;-41
2021/12/21 05:35:15;;;;;;;16.10;8.63;;;-3.80;99.90;;;;;;5000496;28;20206;-39
2021/12/21 05:37:42;;;;;;;15.60;9.60;;;-3.80;99.90;;;;;;5001113;28;20543;-38
2021/12/21 05:40:14;;;;;;;16.13;9.23;;;-3.80;99.90;;;;;;5017099;28;20179;-38
2021/12/21 05:42:41;;;;;;;29.60;9.30;;;-3.80;99.90;;;;;;5017010;28;20199;-38
2021/12/21 05:45:10;;;;;;;13.93;8.33;;;-3.80;99.90;;;;;;5016501;28;20187;-40
2021/12/21 05:47:36;;;;;;;20.60;8.20;;;-3.90;99.90;;;;;;5000293;28;20293;-38
2021/12/21 05:50:04;;;;;;;13.80;9.03;;;-4.00;99.90;;;;;;5016640;28;20178;-37
2021/12/21 05:52:30;;;;;;;24.97;9.17;;;-4.00;99.90;;;;;;5016673;28;20217;-38
2021/12/21 05:54:56;;;;;;;14.03;8.30;;;-4.00;99.90;;;;;;5016796;28;20539;-38
2021/12/21 05:57:22;;;;;;;17.87;10.67;;;-4.10;99.90;;;;;;5016976;28;20182;-40
2021/12/21 05:59:48;;;;;;;13.47;8.83;;;-4.10;99.90;;;;;;5016533;28;20174;-38
2021/12/21 06:02:14;;;;;;;15.27;9.53;;;-4.00;99.90;;;;;;4999282;28;20322;-39
2021/12/21 06:04:40;;;;;;;46.03;23.27;;;-4.00;99.90;;;;;;5000074;28;20186;-40
2021/12/21 06:07:05;;;;;;;46.67;18.13;;;-3.90;99.90;;;;;;5032771;28;20182;-43
2021/12/21 06:09:32;;;;;;;40.97;21.60;;;-4.00;99.90;;;;;;5016407;28;20183;-38
2021/12/21 06:25:37;;;;;;;16.90;9.17;;;-4.10;99.90;;;;;;5013962;28;20175;-39
2021/12/21 06:28:11;;;;;;;37.67;14.37;;;-4.10;99.90;;;;;;4996708;28;20262;-38
2021/12/21 06:30:40;;;;;;;17.47;8.67;;;-4.10;99.90;;;;;;5012606;28;20246;-38
2021/12/21 06:33:07;;;;;;;13.83;7.50;;;-4.00;99.90;;;;;;4996310;28;20175;-38
2021/12/21 06:35:34;;;;;;;12.60;7.77;;;-4.10;99.90;;;;;;4996392;28;20183;-38
2021/12/21 06:38:01;;;;;;;15.23;8.23;;;-4.00;99.90;;;;;;5012844;28;20185;-38
2021/12/21 06:40:27;;;;;;;42.60;13.77;;;-4.10;99.90;;;;;;4996212;28;20229;-38
2021/12/21 06:42:54;;;;;;;14.57;8.00;;;-4.10;99.90;;;;;;5028998;28;20298;-41
2021/12/21 06:45:44;;;;;;;13.60;7.90;;;-4.10;99.90;;;;;;5014070;28;20272;-43
2021/12/21 06:53:43;;;;;;;13.77;8.33;;;-4.20;99.90;;;;;;5032228;28;20197;-38
2021/12/21 06:56:10;;;;;;;18.03;9.07;;;-4.20;99.90;;;;;;5015171;28;20261;-38
2021/12/21 06:58:36;;;;;;;14.23;8.27;;;-4.20;99.90;;;;;;5015524;28;20183;-38
2021/12/21 07:01:04;;;;;;;24.80;13.27;;;-4.20;99.90;;;;;;5015171;28;20199;-38
2021/12/21 07:03:30;;;;;;;14.50;10.00;;;-4.30;99.90;;;;;;4999145;28;20248;-38
2021/12/21 07:06:01;;;;;;;18.10;11.97;;;-4.30;99.90;;;;;;5032252;28;20190;-38
2021/12/21 07:08:29;;;;;;;18.57;10.17;;;-4.20;99.90;;;;;;5015062;28;20647;-38
2021/12/21 07:18:57;;;;;;;22.87;9.80;;;-4.40;99.90;;;;;;5031472;28;20175;-38
2021/12/21 07:21:23;;;;;;;23.20;9.37;;;-4.50;99.90;;;;;;4998389;28;20218;-38
2021/12/21 07:23:52;;;;;;;19.30;9.53;;;-4.50;99.90;;;;;;4998943;28;20186;-38
2021/12/21 07:26:18;;;;;;;18.77;9.97;;;-4.40;99.90;;;;;;5031350;28;20182;-37
2021/12/21 07:28:44;;;;;;;18.10;9.27;;;-4.40;99.90;;;;;;5000598;28;20301;-38
2021/12/21 07:31:10;;;;;;;24.67;10.93;;;-4.40;99.90;;;;;;5015661;28;20269;-38
2021/12/21 07:33:36;;;;;;;16.97;10.47;;;-4.40;99.90;;;;;;4997748;28;20186;-38
2021/12/21 07:36:03;;;;;;;21.50;10.30;;;-4.50;99.90;;;;;;5030978;28;20189;-38
2021/12/21 07:38:30;;;;;;;28.23;12.60;;;-4.40;99.90;;;;;;5031216;28;20183;-38
2021/12/21 07:40:57;;;;;;;25.87;10.80;;;-4.50;99.90;;;;;;4998481;28;20202;-38
2021/12/21 07:43:24;;;;;;;32.67;15.10;;;-4.50;99.90;;;;;;5031320;28;20175;-38
2021/12/21 07:45:51;;;;;;;29.50;11.13;;;-4.50;99.90;;;;;;4998180;28;20179;-38
2021/12/21 07:48:18;;;;;;;19.90;9.80;;;-4.50;99.90;;;;;;5030886;28;20194;-38
2021/12/21 07:50:46;;;;;;;20.50;10.60;;;-4.50;99.90;;;;;;5014349;28;20264;-38
2021/12/21 07:53:17;;;;;;;24.33;10.80;;;-4.50;99.90;;;;;;5014604;28;20183;-38
2021/12/21 07:55:43;;;;;;;19.23;10.93;;;-4.40;99.90;;;;;;5014464;28;20183;-38
2021/12/21 07:58:10;;;;;;;19.33;10.93;;;-4.30;99.90;;;;;;4998170;28;20234;-38
2021/12/21 08:00:37;;;;;;;21.37;11.27;;;-4.30;99.90;;;;;;5030756;28;20182;-38
2021/12/21 08:03:04;;;;;;;15.73;10.33;;;-4.30;99.90;;;;;;4997636;28;20178;-39
2021/12/21 08:05:33;;;;;;;20.17;10.93;;;-4.30;99.90;;;;;;5014292;28;20170;-38
2021/12/21 08:08:17;;;;;;;17.67;10.90;;;-4.20;99.90;;;;;;5030777;28;20174;-38
2021/12/21 08:10:56;;;;;;;25.63;11.87;;;-4.20;99.90;;;;;;5031946;28;20206;-37
2021/12/21 08:13:23;;;;;;;24.40;12.27;;;-4.10;99.90;;;;;;4997674;28;20205;-39
2021/12/21 08:15:49;;;;;;;24.43;13.20;;;-4.10;99.90;;;;;;5030310;28;20178;-38
2021/12/21 08:18:15;;;;;;;21.50;12.47;;;-4.00;99.90;;;;;;5030182;28;20297;-39
2021/12/21 08:20:42;;;;;;;22.10;12.63;;;-4.00;99.90;;;;;;4997079;28;20233;-40
2021/12/21 08:23:08;;;;;;;22.70;12.47;;;-3.80;99.90;;;;;;5012256;28;20197;-38
2021/12/21 08:25:35;;;;;;;23.23;11.83;;;-3.80;99.90;;;;;;5012927;28;20179;-38
2021/12/21 08:28:03;;;;;;;19.40;12.00;;;-3.80;99.90;;;;;;5013383;28;20220;-38
2021/12/21 08:30:30;;;;;;;24.10;13.17;;;-3.70;99.90;;;;;;5012504;28;20179;-38
2021/12/21 08:32:57;;;;;;;18.37;11.03;;;-3.70;99.90;;;;;;5013173;28;20179;-38
2021/12/21 08:35:24;;;;;;;21.67;12.43;;;-3.70;99.90;;;;;;5028919;28;20177;-37
2021/12/21 08:37:53;;;;;;;21.50;12.50;;;-3.60;99.90;;;;;;5012293;28;20178;-38
2021/12/21 08:40:22;;;;;;;23.23;12.23;;;-3.50;99.90;;;;;;4997023;28;20179;-38
2021/12/21 08:42:51;;;;;;;21.73;11.60;;;-3.50;99.90;;;;;;4990017;28;20689;-38
2021/12/21 08:45:17;;;;;;;20.93;11.27;;;-3.50;99.90;;;;;;5010942;28;20194;-40
2021/12/21 08:47:43;;;;;;;22.37;12.23;;;-3.40;99.90;;;;;;4997453;28;20187;-40
2021/12/21 08:50:12;;;;;;;24.33;13.37;;;-3.40;99.90;;;;;;4997530;28;20228;-38
2021/12/21 08:52:39;;;;;;;25.60;13.40;;;-3.40;99.90;;;;;;5013697;28;20214;-38
2021/12/21 08:55:07;;;;;;;54.23;29.93;;;-3.30;99.90;;;;;;4996710;28;20507;-38
2021/12/21 08:57:36;;;;;;;28.37;15.93;;;-3.40;99.90;;;;;;5033665;28;20655;-41
2021/12/21 09:00:08;;;;;;;24.27;13.27;;;-3.30;99.90;;;;;;5013833;28;20182;-38
2021/12/21 09:02:36;;;;;;;23.23;13.13;;;-3.30;99.90;;;;;;5031026;28;20202;-38
2021/12/21 09:05:14;;;;;;;20.93;13.00;;;-3.20;99.90;;;;;;5030080;28;20193;-38
2021/12/21 09:07:44;;;;;;;25.43;13.17;;;-3.10;99.90;;;;;;5013162;28;20190;-38
2021/12/21 09:10:12;;;;;;;23.40;13.80;;;-3.10;99.90;;;;;;5012385;28;20187;-38
2021/12/21 09:12:38;;;;;;;21.67;13.20;;;-3.00;99.90;;;;;;5028906;28;20211;-38
2021/12/21 09:15:06;;;;;;;25.47;13.33;;;-3.00;99.90;;;;;;5017763;28;20190;-42
2021/12/21 09:17:35;;;;;;;22.77;13.27;;;-3.00;99.90;;;;;;4995762;28;20186;-38
2021/12/21 09:20:06;;;;;;;24.27;14.53;;;-3.00;99.90;;;;;;5034182;28;20181;-38
2021/12/21 09:22:33;;;;;;;23.47;13.93;;;-3.00;99.90;;;;;;5013743;28;20277;-38
2021/12/21 09:24:59;;;;;;;25.13;14.43;;;-3.00;99.90;;;;;;4995736;28;20182;-38
2021/12/21 09:27:27;;;;;;;22.43;13.10;;;-3.10;99.90;;;;;;4996503;28;20185;-38
2021/12/21 09:29:53;;;;;;;22.13;12.90;;;-3.00;99.90;;;;;;5011422;28;20183;-38
2021/12/21 09:32:19;;;;;;;21.70;14.00;;;-3.00;99.90;;;;;;5013252;28;20205;-38
2021/12/21 09:34:46;;;;;;;25.67;14.00;;;-2.90;99.90;;;;;;5017156;28;20174;-37
2021/12/21 09:37:19;;;;;;;27.47;13.77;;;-2.90;99.90;;;;;;5043166;28;20249;-36
2021/12/21 09:39:49;;;;;;;26.27;14.00;;;-2.90;99.90;;;;;;5020061;28;20186;-36
2021/12/21 09:42:22;;;;;;;33.03;14.37;;;-2.90;99.90;;;;;;5022195;28;20206;-36
2021/12/21 09:44:50;;;;;;;24.57;13.07;;;-2.80;99.90;;;;;;5041867;28;20186;-37
2021/12/21 09:47:19;;;;;;;37.87;13.43;;;-2.80;99.90;;;;;;5021545;28;20183;-37
2021/12/21 09:49:47;;;;;;;19.60;11.87;;;-2.80;99.90;;;;;;5009439;28;20183;-40
2021/12/21 09:52:21;;;;;;;43.43;15.40;;;-2.80;99.90;;;;;;5008575;28;20245;-41
2021/12/21 09:54:48;;;;;;;35.80;15.90;;;-2.90;99.90;;;;;;5027464;28;20246;-38
2021/12/21 09:57:17;;;;;;;28.80;16.10;;;-2.90;99.90;;;;;;5023051;28;20635;-38
2021/12/21 09:59:49;;;;;;;28.70;15.70;;;-2.80;99.90;;;;;;5039891;28;20179;-38
2021/12/21 10:02:18;;;;;;;26.40;14.67;;;-2.80;99.90;;;;;;5015629;28;20202;-37
2021/12/21 10:05:06;;;;;;;28.80;14.27;;;-2.70;99.90;;;;;;5018908;28;20193;-38
2021/12/21 10:07:33;;;;;;;25.87;14.47;;;-2.70;99.90;;;;;;5037434;28;20306;-38
2021/12/21 10:10:10;;;;;;;24.67;14.80;;;-2.60;99.90;;;;;;5012481;28;20269;-38
2021/12/21 10:12:46;;;;;;;29.63;16.37;;;-2.50;99.90;;;;;;5013277;28;20222;-38
2021/12/21 10:15:15;;;;;;;37.83;17.53;;;-2.40;99.90;;;;;;5013250;28;20208;-38
2021/12/21 10:17:49;;;;;;;37.07;18.37;;;-2.30;99.90;;;;;;5008343;28;20174;-37
2021/12/21 10:20:49;;;;;;;30.33;17.10;;;-2.40;99.90;;;;;;5052349;28;20194;-38
2021/12/21 10:23:24;;;;;;;27.03;15.80;;;-2.40;99.90;;;;;;5025689;28;20187;-38
2021/12/21 10:25:57;;;;;;;35.63;17.53;;;-2.30;99.90;;;;;;5043846;28;20272;-38
2021/12/21 10:28:34;;;;;;;27.80;15.50;;;-2.20;99.90;;;;;;5023227;28;20175;-37
2021/12/21 10:31:06;;;;;;;23.87;13.77;;;-2.20;99.90;;;;;;5039931;28;20206;-38
2021/12/21 10:33:34;;;;;;;22.73;13.53;;;-2.50;99.90;;;;;;5044743;28;20221;-37
2021/12/21 10:36:02;;;;;;;24.27;14.17;;;-2.50;99.90;;;;;;5013643;28;20181;-40
2021/12/21 10:38:34;;;;;;;26.67;14.43;;;-2.30;99.90;;;;;;5025781;28;20185;-38
2021/12/21 10:41:12;;;;;;;21.73;13.90;;;-2.40;99.90;;;;;;5038512;28;20198;-38
2021/12/21 10:43:38;;;;;;;26.87;16.00;;;-2.20;99.90;;;;;;5025715;28;20220;-38
2021/12/21 10:46:05;;;;;;;28.00;16.97;;;-2.00;99.90;;;;;;5014802;28;20185;-38
2021/12/21 10:48:35;;;;;;;29.17;17.17;;;-1.80;99.90;;;;;;5032206;28;20178;-38
2021/12/21 10:51:01;;;;;;;28.77;17.20;;;-1.70;99.90;;;;;;5019119;28;20248;-38
2021/12/21 10:53:27;;;;;;;23.53;14.93;;;-1.50;99.90;;;;;;5035571;28;20201;-39
2021/12/21 10:56:07;;;;;;;25.70;16.50;;;-1.40;99.90;;;;;;5018733;28;20170;-38
2021/12/21 10:58:40;;;;;;;23.63;14.13;;;-1.30;99.90;;;;;;5035768;28;20178;-38
2021/12/21 11:01:09;;;;;;;24.43;14.07;;;-1.10;99.90;;;;;;5033793;28;20203;-38
2021/12/21 11:03:44;;;;;;;23.33;14.50;;;-1.00;99.90;;;;;;5017818;28;20185;-38
2021/12/21 11:06:16;;;;;;;23.80;15.73;;;-0.80;99.90;;;;;;5032367;28;20178;-38
2021/12/21 11:08:45;;;;;;;24.33;15.57;;;-0.70;99.90;;;;;;5023379;28;20179;-38
2021/12/21 11:11:32;;;;;;;25.23;15.73;;;-0.50;99.90;;;;;;5024798;28;20206;-38
2021/12/21 11:14:14;;;;;;;23.23;14.57;;;-0.50;99.90;;;;;;5027497;28;20199;-38
2021/12/21 11:16:54;;;;;;;20.70;14.43;;;-0.50;99.90;;;;;;5024833;28;20183;-38
2021/12/21 11:19:23;;;;;;;26.33;15.70;;;-0.50;99.90;;;;;;5023186;28;20180;-38
2021/12/21 11:21:50;;;;;;;27.03;17.37;;;-0.40;99.90;;;;;;5022044;28;20216;-38
2021/12/21 11:24:18;;;;;;;23.37;14.93;;;-0.30;99.90;;;;;;5024377;28;20171;-38
2021/12/21 11:26:47;;;;;;;28.30;15.97;;;-0.30;99.90;;;;;;5022680;28;20247;-38
2021/12/21 11:29:18;;;;;;;23.70;16.67;;;-0.30;99.90;;;;;;5024301;28;20262;-38
2021/12/21 11:31:49;;;;;;;24.83;15.07;;;-0.20;99.90;;;;;;5004080;28;20250;-38
2021/12/21 11:34:20;;;;;;;22.50;15.33;;;-0.10;99.90;;;;;;5028196;28;20221;-40
2021/12/21 11:39:33;;;;;;;26.90;17.93;;;0.00;99.90;;;;;;5052212;28;20184;-39
2021/12/21 11:42:05;;;;;;;22.63;16.37;;;0.20;99.90;;;;;;5023560;28;20562;-38
2021/12/21 11:44:54;;;;;;;25.37;15.90;;;0.30;99.90;;;;;;5023258;28;20221;-38
2021/12/21 11:47:37;;;;;;;25.20;16.37;;;0.40;99.90;;;;;;5014772;28;20280;-37
2021/12/21 11:50:07;;;;;;;25.43;15.33;;;0.40;99.90;;;;;;5014387;28;20181;-38
2021/12/21 11:52:50;;;;;;;23.53;15.97;;;0.50;99.90;;;;;;4998248;28;20218;-37
2021/12/21 11:55:19;;;;;;;26.23;15.70;;;0.50;99.90;;;;;;5014560;28;20177;-38
2021/12/21 11:57:49;;;;;;;22.97;15.70;;;0.60;99.90;;;;;;5015039;28;20645;-38
2021/12/21 12:00:21;;;;;;;24.87;15.53;;;0.60;99.90;;;;;;5042644;28;20173;-38
2021/12/21 12:02:49;;;;;;;24.60;15.47;;;0.60;99.90;;;;;;5011579;28;20209;-38
2021/12/21 12:05:18;;;;;;;20.97;14.03;;;0.70;99.90;;;;;;5030366;28;20181;-37
2021/12/21 12:07:45;;;;;;;23.90;15.13;;;0.80;99.90;;;;;;5006289;28;20413;-40
2021/12/21 12:10:14;;;;;;;23.43;15.10;;;0.70;99.90;;;;;;5041414;28;20260;-38
2021/12/21 12:12:41;;;;;;;24.33;15.97;;;0.80;99.90;;;;;;5021772;28;20217;-38
2021/12/21 12:15:09;;;;;;;20.43;13.63;;;0.90;99.90;;;;;;5015416;28;20260;-37
2021/12/21 12:17:51;;;;;;;19.13;12.67;;;0.90;99.90;;;;;;5015089;28;20261;-38
2021/12/21 12:20:25;;;;;;;17.03;12.13;;;0.80;99.90;;;;;;5023354;28;20177;-40
2021/12/21 12:23:06;;;;;;;17.33;11.40;;;0.90;99.90;;;;;;5039452;28;20212;-39
2021/12/21 12:25:32;;;;;;;17.20;10.93;;;1.00;99.90;;;;;;5044084;28;20181;-37
2021/12/21 12:27:58;;;;;;;20.53;11.80;;;1.10;99.90;;;;;;5010968;28;20197;-38
2021/12/21 12:30:26;;;;;;;18.10;12.30;;;1.20;99.90;;;;;;5006960;28;20300;-38
2021/12/21 12:33:00;;;;;;;16.03;8.83;;;1.30;99.90;;;;;;5014128;28;20349;-38
2021/12/21 12:35:30;;;;;;;16.93;10.50;;;1.30;99.90;;;;;;5030281;28;20223;-37
2021/12/21 12:38:03;;;;;;;16.17;10.90;;;1.40;99.90;;;;;;5013738;28;20178;-37
2021/12/21 12:40:36;;;;;;;15.10;10.70;;;1.40;99.90;;;;;;5014035;28;20174;-38
2021/12/21 12:43:05;;;;;;;15.33;10.63;;;1.60;99.90;;;;;;4997661;28;20268;-38
2021/12/21 12:45:36;;;;;;;16.57;10.30;;;1.70;99.90;;;;;;5013868;28;20285;-38
2021/12/21 12:48:03;;;;;;;14.93;10.70;;;1.90;99.90;;;;;;5013221;28;20251;-37
2021/12/21 12:50:36;;;;;;;14.30;10.20;;;2.10;99.90;;;;;;5013486;28;20178;-38
2021/12/21 12:53:06;;;;;;;18.97;11.10;;;2.20;99.90;;;;;;5030104;28;20178;-40
2021/12/21 12:55:53;;;;;;;19.30;11.93;;;2.30;99.90;;;;;;5031576;28;20185;-37
2021/12/21 12:58:21;;;;;;;18.93;10.83;;;2.40;99.90;;;;;;4997400;28;20197;-40
2021/12/21 13:00:57;;;;;;;15.90;10.17;;;2.40;99.90;;;;;;5029403;28;20179;-38
2021/12/21 13:03:35;;;;;;;15.93;10.30;;;2.40;99.90;;;;;;5030144;28;20179;-37
2021/12/21 13:06:10;;;;;;;16.53;10.63;;;2.40;99.90;;;;;;4997401;28;20184;-38
2021/12/21 13:08:36;;;;;;;18.37;10.03;;;2.50;99.90;;;;;;5013736;28;20173;-39
2021/12/21 13:11:02;;;;;;;17.37;10.57;;;2.50;99.90;;;;;;5013442;28;20214;-37
2021/12/21 13:13:37;;;;;;;15.33;10.50;;;2.60;99.90;;;;;;4997580;28;20194;-37
2021/12/21 13:16:10;;;;;;;15.50;10.43;;;2.70;99.90;;;;;;5006121;28;20216;-37
2021/12/21 13:18:53;;;;;;;17.30;10.70;;;2.80;99.90;;;;;;5027636;28;20274;-37
2021/12/21 13:21:35;;;;;;;17.20;11.43;;;2.90;99.90;;;;;;5014754;28;20716;-37
2021/12/21 13:24:09;;;;;;;14.50;9.77;;;3.10;99.90;;;;;;5042125;28;20265;-37
2021/12/21 13:26:50;;;;;;;14.63;9.63;;;3.20;99.90;;;;;;5020189;28;20177;-37
2021/12/21 13:29:18;;;;;;;18.17;11.50;;;3.30;99.90;;;;;;5026258;28;20245;-36
2021/12/21 13:31:51;;;;;;;20.77;12.40;;;3.40;99.90;;;;;;5028080;28;20618;-37
2021/12/21 13:34:19;;;;;;;19.10;11.70;;;3.40;99.90;;;;;;5028952;28;20178;-37
2021/12/21 13:36:52;;;;;;;18.23;11.17;;;3.40;99.90;;;;;;5025737;28;20257;-37
2021/12/21 13:39:25;;;;;;;14.50;10.30;;;3.30;99.90;;;;;;5031100;28;20646;-37
2021/12/21 13:41:57;;;;;;;13.70;9.47;;;3.20;99.90;;;;;;5027123;28;20197;-37
2021/12/21 13:44:35;;;;;;;11.70;9.37;;;3.20;99.90;;;;;;5020350;28;20166;-36
2021/12/21 13:47:06;;;;;;;11.83;8.67;;;3.30;99.90;;;;;;5009156;28;20180;-36
2021/12/21 13:49:32;;;;;;;12.83;8.97;;;3.40;99.90;;;;;;5019745;28;20270;-36
2021/12/21 13:52:00;;;;;;;12.80;8.57;;;3.50;99.90;;;;;;5051819;28;20308;-36
2021/12/21 13:54:27;;;;;;;13.27;8.67;;;3.60;99.90;;;;;;5025801;28;20185;-36
2021/12/21 13:56:54;;;;;;;13.10;8.63;;;3.70;99.90;;;;;;5054069;28;20186;-37
2021/12/21 13:59:21;;;;;;;12.60;8.57;;;3.70;99.90;;;;;;5032451;28;20644;-36
2021/12/21 14:01:54;;;;;;;12.07;8.13;;;3.70;99.90;;;;;;5018533;28;20202;-36
2021/12/21 14:04:27;;;;;;;12.47;8.10;;;3.70;99.90;;;;;;5010618;28;20639;-36
2021/12/21 14:06:54;;;;;;;13.27;9.33;;;3.80;99.90;;;;;;5035528;28;20179;-36